GEOFB FSIA-FIMA
Flight info
| Callsign | GEOFB |
|---|---|
| Flight time | 0h 32m |
| Altitude | 39000 |
| Route | IMPOX1A IMPOX DCT RERUS/N0517F400 UM313 ALRAN |
| Aircraft | C750/M-SBDE3FGHRWXY/S |
Departure
| Time | 2026-05-06 12:35 |
|---|---|
| Airport | Seychelles International Airport (FSIA) |
Arrival
| Time | 2026-05-06 13:07 |
|---|---|
| Airport | Agalega Island Airstrip (FIMA) |
| Time | Latitude | Longitude | Altitude | Speed | Heading |
|---|---|---|---|---|---|
| 2026-05-06 12:23 | -4.68055 | 55.52752 | 5 ft | 0 kts | 330° |
| 2026-05-06 12:32 | -4.68054 | 55.52752 | 5 ft | 0 kts | 338° |
| 2026-05-06 12:33 | -4.68050 | 55.52764 | 5 ft | 5 kts | 80° |
| 2026-05-06 12:33 | -4.68058 | 55.52828 | 5 ft | 15 kts | 111° |
| 2026-05-06 12:33 | -4.68050 | 55.52918 | 5 ft | 12 kts | 94° |
| 2026-05-06 12:33 | -4.68051 | 55.52988 | 6 ft | 12 kts | 50° |
| 2026-05-06 12:34 | -4.67992 | 55.52990 | 5 ft | 7 kts | 302° |
| 2026-05-06 12:34 | -4.67860 | 55.52788 | 4 ft | 90 kts | 304° |
| 2026-05-06 12:34 | -4.67319 | 55.52023 | 81 ft | 160 kts | 305° |
| 2026-05-06 12:34 | -4.66652 | 55.51055 | 538 ft | 179 kts | 305° |
| 2026-05-06 12:35 | -4.65800 | 55.50139 | 1366 ft | 184 kts | 322° |
| 2026-05-06 12:35 | -4.64815 | 55.49302 | 2256 ft | 186 kts | 319° |
| 2026-05-06 12:35 | -4.63580 | 55.48733 | 2760 ft | 214 kts | 351° |
| 2026-05-06 12:35 | -4.62018 | 55.48518 | 3396 ft | 239 kts | 352° |
| 2026-05-06 12:36 | -4.60299 | 55.48234 | 4073 ft | 263 kts | 351° |
| 2026-05-06 12:36 | -4.58454 | 55.47925 | 4989 ft | 271 kts | 351° |
| 2026-05-06 12:36 | -4.56587 | 55.47625 | 6052 ft | 272 kts | 351° |
| 2026-05-06 12:36 | -4.54804 | 55.46937 | 6154 ft | 283 kts | 324° |
| 2026-05-06 12:37 | -4.53616 | 55.45432 | 5995 ft | 283 kts | 295° |
| 2026-05-06 12:37 | -4.53279 | 55.43470 | 6792 ft | 281 kts | 269° |
| 2026-05-06 12:37 | -4.53377 | 55.41542 | 8137 ft | 278 kts | 266° |
| 2026-05-06 12:37 | -4.53497 | 55.39588 | 9233 ft | 283 kts | 266° |
| 2026-05-06 12:38 | -4.53611 | 55.37603 | 10268 ft | 288 kts | 266° |
| 2026-05-06 12:38 | -4.53726 | 55.35540 | 10832 ft | 309 kts | 266° |
| 2026-05-06 12:38 | -4.54054 | 55.33328 | 10939 ft | 338 kts | 251° |
| 2026-05-06 12:38 | -4.55400 | 55.31320 | 11234 ft | 356 kts | 224° |
| 2026-05-06 12:39 | -4.57455 | 55.30026 | 12134 ft | 358 kts | 201° |
| 2026-05-06 12:39 | -4.59926 | 55.29630 | 12923 ft | 362 kts | 184° |
| 2026-05-06 12:39 | -4.62461 | 55.29576 | 13688 ft | 367 kts | 181° |
| 2026-05-06 12:39 | -4.65029 | 55.29543 | 14391 ft | 372 kts | 182° |
| 2026-05-06 12:40 | -4.67626 | 55.29428 | 15085 ft | 376 kts | 184° |
| 2026-05-06 12:40 | -4.70255 | 55.29293 | 15768 ft | 381 kts | 183° |
| 2026-05-06 12:40 | -4.72918 | 55.29195 | 16453 ft | 385 kts | 182° |
| 2026-05-06 12:40 | -4.75608 | 55.29110 | 17157 ft | 389 kts | 182° |
| 2026-05-06 12:41 | -4.78335 | 55.29005 | 17835 ft | 394 kts | 182° |
| 2026-05-06 12:41 | -4.81051 | 55.28890 | 18524 ft | 399 kts | 182° |
| 2026-05-06 12:41 | -4.83839 | 55.28781 | 19240 ft | 403 kts | 182° |
| 2026-05-06 12:41 | -4.86663 | 55.28677 | 19952 ft | 408 kts | 182° |
| 2026-05-06 12:42 | -4.89517 | 55.28570 | 20667 ft | 413 kts | 182° |
| 2026-05-06 12:42 | -4.92403 | 55.28457 | 21352 ft | 417 kts | 182° |
| 2026-05-06 12:42 | -4.95315 | 55.28343 | 22049 ft | 421 kts | 182° |
| 2026-05-06 12:42 | -4.98265 | 55.28229 | 22707 ft | 426 kts | 182° |
| 2026-05-06 12:43 | -5.01243 | 55.28116 | 23347 ft | 431 kts | 182° |
| 2026-05-06 12:43 | -5.06806 | 55.27901 | 24502 ft | 439 kts | 182° |
| 2026-05-06 12:43 | -5.12870 | 55.28295 | 25526 ft | 450 kts | 167° |
| 2026-05-06 12:43 | -5.18891 | 55.30184 | 26711 ft | 457 kts | 162° |
| 2026-05-06 12:44 | -5.24989 | 55.32149 | 27821 ft | 466 kts | 162° |
| 2026-05-06 12:44 | -5.31219 | 55.34161 | 28975 ft | 473 kts | 162° |
| 2026-05-06 12:44 | -5.37529 | 55.36198 | 29961 ft | 480 kts | 161° |
| 2026-05-06 12:44 | -5.43944 | 55.38269 | 30862 ft | 488 kts | 161° |
| 2026-05-06 12:45 | -5.50392 | 55.40351 | 32120 ft | 486 kts | 161° |
| 2026-05-06 12:45 | -5.56805 | 55.42422 | 33389 ft | 482 kts | 161° |
| 2026-05-06 12:45 | -5.69373 | 55.46484 | 35755 ft | 475 kts | 161° |
| 2026-05-06 12:46 | -5.75678 | 55.48522 | 36837 ft | 474 kts | 161° |
| 2026-05-06 12:46 | -5.81953 | 55.50552 | 37825 ft | 475 kts | 161° |
| 2026-05-06 12:46 | -5.88241 | 55.52585 | 38796 ft | 475 kts | 161° |
| 2026-05-06 12:46 | -5.94673 | 55.54669 | 38832 ft | 497 kts | 161° |
| 2026-05-06 12:47 | -6.01382 | 55.56839 | 38843 ft | 515 kts | 161° |
| 2026-05-06 12:47 | -6.08292 | 55.59075 | 38841 ft | 528 kts | 161° |
| 2026-05-06 12:47 | -6.15356 | 55.61362 | 38840 ft | 536 kts | 161° |
| 2026-05-06 12:48 | -6.29549 | 55.65959 | 38842 ft | 541 kts | 161° |
| 2026-05-06 12:48 | -6.43901 | 55.70609 | 38839 ft | 542 kts | 161° |
| 2026-05-06 12:49 | -6.58240 | 55.75259 | 38840 ft | 541 kts | 161° |
| 2026-05-06 12:49 | -6.72561 | 55.79905 | 38837 ft | 540 kts | 161° |
| 2026-05-06 12:50 | -6.86762 | 55.84516 | 38838 ft | 540 kts | 161° |
| 2026-05-06 12:50 | -7.01036 | 55.89154 | 38840 ft | 539 kts | 161° |
| 2026-05-06 12:51 | -7.15300 | 55.93793 | 38840 ft | 538 kts | 161° |
| 2026-05-06 12:51 | -7.29524 | 55.98418 | 38842 ft | 537 kts | 161° |
| 2026-05-06 12:52 | -7.43655 | 56.03018 | 38841 ft | 537 kts | 161° |
| 2026-05-06 12:52 | -7.57855 | 56.07643 | 38841 ft | 536 kts | 161° |
| 2026-05-06 12:53 | -7.72483 | 56.10502 | 38840 ft | 538 kts | 176° |
| 2026-05-06 12:53 | -7.87363 | 56.12261 | 38845 ft | 538 kts | 174° |
| 2026-05-06 12:54 | -8.02240 | 56.13994 | 38844 ft | 538 kts | 173° |
| 2026-05-06 12:54 | -8.17025 | 56.15713 | 38845 ft | 538 kts | 173° |
| 2026-05-06 12:55 | -8.31921 | 56.17450 | 38845 ft | 539 kts | 173° |
| 2026-05-06 12:55 | -8.46561 | 56.19161 | 37633 ft | 504 kts | 173° |
| 2026-05-06 12:55 | -8.53278 | 56.19950 | 36389 ft | 471 kts | 173° |
| 2026-05-06 12:56 | -8.59686 | 56.20703 | 35161 ft | 461 kts | 173° |
| 2026-05-06 12:56 | -8.66100 | 56.21458 | 33931 ft | 466 kts | 174° |
| 2026-05-06 12:56 | -8.72485 | 56.22207 | 32710 ft | 470 kts | 174° |
| 2026-05-06 12:56 | -8.79008 | 56.22975 | 31460 ft | 474 kts | 174° |
| 2026-05-06 12:57 | -8.85580 | 56.23747 | 30189 ft | 478 kts | 174° |
| 2026-05-06 12:57 | -8.92131 | 56.24518 | 28926 ft | 468 kts | 174° |
| 2026-05-06 12:57 | -8.98532 | 56.25272 | 27691 ft | 459 kts | 174° |
| 2026-05-06 12:57 | -9.04817 | 56.26011 | 26486 ft | 451 kts | 174° |
| 2026-05-06 12:58 | -9.10988 | 56.26738 | 25295 ft | 442 kts | 174° |
| 2026-05-06 12:58 | -9.17058 | 56.27453 | 24126 ft | 435 kts | 174° |
| 2026-05-06 12:58 | -9.23013 | 56.28155 | 22981 ft | 427 kts | 174° |
| 2026-05-06 12:58 | -9.28789 | 56.28835 | 21866 ft | 419 kts | 174° |
| 2026-05-06 12:59 | -9.34534 | 56.29513 | 20761 ft | 412 kts | 173° |
| 2026-05-06 12:59 | -9.40182 | 56.30180 | 19673 ft | 405 kts | 173° |
| 2026-05-06 12:59 | -9.45725 | 56.30834 | 18614 ft | 397 kts | 173° |
| 2026-05-06 12:59 | -9.51152 | 56.31474 | 17569 ft | 388 kts | 173° |
| 2026-05-06 13:00 | -9.56481 | 56.32104 | 16541 ft | 383 kts | 173° |
| 2026-05-06 13:00 | -9.61754 | 56.32727 | 15527 ft | 379 kts | 173° |
| 2026-05-06 13:00 | -9.66971 | 56.33343 | 14523 ft | 375 kts | 173° |
| 2026-05-06 13:00 | -9.72115 | 56.33952 | 13535 ft | 371 kts | 173° |
| 2026-05-06 13:01 | -9.77145 | 56.34546 | 12565 ft | 367 kts | 173° |
| 2026-05-06 13:01 | -9.82185 | 56.35142 | 11595 ft | 363 kts | 173° |
| 2026-05-06 13:01 | -9.87062 | 56.35719 | 10651 ft | 332 kts | 173° |
| 2026-05-06 13:01 | -9.91387 | 56.36228 | 9820 ft | 299 kts | 172° |
| 2026-05-06 13:02 | -9.95461 | 56.36712 | 9070 ft | 293 kts | 172° |
| 2026-05-06 13:02 | -9.99472 | 56.37211 | 8323 ft | 286 kts | 169° |
| 2026-05-06 13:02 | -10.02902 | 56.39079 | 7614 ft | 280 kts | 147° |
| 2026-05-06 13:02 | -10.06235 | 56.41108 | 6903 ft | 277 kts | 147° |
| 2026-05-06 13:03 | -10.09490 | 56.43142 | 6179 ft | 273 kts | 147° |
| 2026-05-06 13:03 | -10.12320 | 56.44896 | 5562 ft | 269 kts | 147° |
| 2026-05-06 13:03 | -10.13907 | 56.45881 | 5229 ft | 266 kts | 147° |
| 2026-05-06 13:03 | -10.15479 | 56.46858 | 4899 ft | 264 kts | 147° |
| 2026-05-06 13:04 | -10.17041 | 56.47828 | 4553 ft | 263 kts | 147° |
| 2026-05-06 13:04 | -10.18595 | 56.48795 | 4179 ft | 261 kts | 147° |
| 2026-05-06 13:04 | -10.24429 | 56.52419 | 2869 ft | 254 kts | 147° |
| 2026-05-06 13:04 | -10.28011 | 56.54646 | 2044 ft | 250 kts | 147° |
| 2026-05-06 13:05 | -10.29474 | 56.55556 | 1693 ft | 229 kts | 147° |
| 2026-05-06 13:05 | -10.30708 | 56.56415 | 1412 ft | 220 kts | 143° |
| 2026-05-06 13:05 | -10.31920 | 56.57253 | 1119 ft | 196 kts | 145° |
| 2026-05-06 13:05 | -10.32929 | 56.57935 | 875 ft | 162 kts | 144° |
| 2026-05-06 13:06 | -10.33751 | 56.58506 | 670 ft | 128 kts | 144° |
| 2026-05-06 13:06 | -10.34462 | 56.59003 | 540 ft | 123 kts | 144° |
| 2026-05-06 13:06 | -10.35157 | 56.59489 | 398 ft | 120 kts | 144° |
| 2026-05-06 13:06 | -10.35838 | 56.59966 | 255 ft | 118 kts | 144° |
| 2026-05-06 13:07 | -10.36519 | 56.60440 | 81 ft | 120 kts | 143° |
| 2026-05-06 13:07 | -10.37164 | 56.60894 | 6 ft | 94 kts | 146° |
| 2026-05-06 13:07 | -10.37384 | 56.61050 | 7 ft | 0 kts | 145° |